FTTJDRRM

Guest
Details From FTTJ - Ndjamena Hassan Djamous
To DRRM - MARADI
Flight Number -
Tags generated
Created
Modified
Stats Distance 477 nm / 884 km
Max Altitude 34,000 ft / 10,363 m
Waypoints 7
Social Downloads 4
Likes 0
Share VATSIM

Download

Looking for another format? Having issues loading an existing format? Contact us
Advertisement - Login to hide

Notes

Basic altitude profile: - Ascent Rate: 2500ft/min - Ascent Speed: 250kts - Cruise Altitude: 35000ft - Cruise Speed: 420kts - Descent Rate: 1500ft/min - Descent Speed: 250kts Options: - Use NATs: yes - Use PACOTS: yes - Use low airways: yes - Use high airways: yes

Route

FTTJ SIGAL G854G KORUT UG854 MOTOP DRRM

ID Type Via Altitude Latitude Longitude Leg Dist Tot Dist Heading (true) Name
O FTTJ APT - 0 ft / 0 m 12.13372˚ 15.03396˚ - 0 nm - Ndjamena Hassan Djamous
SIGAL FIX - 12,000 ft / 3,658 m 12.29750˚ 14.48333˚ 33 nm 33 nm 287° / 287° -
KORUT FIX G854G (AWY-LO) 24,500 ft / 7,468 m 13.34083˚ 10.63333˚ 233 nm 267 nm 286° / 285° -
ULVAB FIX UG854 (AWY-HI) 34,000 ft / 10,363 m 13.47944˚ 10.10250˚ 32 nm 299 nm 285° / 285° -
ZR VOR UG854 (AWY-HI) 24,500 ft / 7,468 m 13.77058˚ 8.97239˚ 68 nm 368 nm 285° / 285° ZINDER VOR
MOTOP FIX UG854 (AWY-HI) 24,500 ft / 7,468 m 13.76028˚ 8.62722˚ 20 nm 388 nm 268° / 268° -
O DRRM APT - 0 ft / 0 m 13.50253˚ 7.12675˚ 88 nm 477 nm 260° / 260° MARADI

Altitude Profile

Advertisement - Login to hide

Weather


0- 5 10 15 20 25 30 35+ Temperature / ° C

Clouds and Precipitation
Forecast for 2017-12-11 12:00 UTC. Updated 2 hours ago

Ground ~20,000 ft ~40,000 ft Winds

FTTJ

Details ICAO FTTJ (NDJ)
Name Ndjamena Hassan Djamous
Region Chad
Timezone Africa/Ndjamena (UTC+1.0)
Stats Elevation 968 ft / 295 m (AMSL)
Location 12.133718° 15.033962°
Runways 1
Magnetic Variation 1.182° E

METAR

FTTJ 110900Z 02010KT 8000 NSC 27/01 Q1014 NOSIG

Decode

TAF

TAF TAF FTTJ 110500Z 1106/1212 36006KT 8000 NSC TEMPO 1106/1108 4500 HZ

Decode

Departure Runways

ID Width Length Bearing (true) Bearing (mag) Surface Threshold Offset Overrun Length
05 148 ft / 45 m 9,200 ft / 2,804 m 45.72° 44.54° Asphalt 0 ft / 0 m 130 ft / 40 m
23 148 ft / 45 m 9,200 ft / 2,804 m 225.72° 224.54° Asphalt 0 ft / 0 m 200 ft / 61 m

DRRM

Details ICAO DRRM (MFQ)
Name MARADI
Region Niger
Timezone Africa/Niamey (UTC+1.0)
Stats Elevation 1,240 ft / 378 m (AMSL)
Location 13.502529° 7.126753°
Runways 1
Magnetic Variation 0.171° W

METAR

DRRM 110900Z 08016KT 8000 NSC 23/03 Q1018

Decode

TAF

Not found

Destination Runways

ID Width Length Bearing (true) Bearing (mag) Surface Threshold Offset Overrun Length
09 98 ft / 30 m 6,078 ft / 1,853 m 83.94° 84.11° Asphalt 0 ft / 0 m 328 ft / 100 m
27 98 ft / 30 m 6,078 ft / 1,853 m 263.94° 264.11° Asphalt 0 ft / 0 m 328 ft / 100 m